createdAt,value
2022-10-19T00:02:17.974Z,18.70
2022-10-19T00:07:20.225Z,19.90
2022-10-19T00:12:22.425Z,19.40
2022-10-19T00:17:24.878Z,18.58
2022-10-19T00:22:27.266Z,17.25
2022-10-19T00:27:29.525Z,17.67
2022-10-19T00:32:32.065Z,16.55
2022-10-19T00:37:34.552Z,16.92
2022-10-19T00:42:36.759Z,15.60
2022-10-19T00:47:39.507Z,16.38
2022-10-19T00:52:42.459Z,14.95
2022-10-19T00:57:44.826Z,14.82
2022-10-19T01:02:47.246Z,13.68
2022-10-19T01:07:50.108Z,13.90
2022-10-19T01:13:10.601Z,11.70
2022-10-19T01:24:05.763Z,12.45
2022-10-19T01:29:26.185Z,12.55
2022-10-19T01:39:49.094Z,10.30
2022-10-19T01:45:04.597Z,11.15
2022-10-19T01:50:13.844Z,10.75
2022-10-19T01:55:18.277Z,10.50
2022-10-19T02:00:23.535Z,10.90
2022-10-19T02:05:31.205Z,11.85
2022-10-19T02:10:38.073Z,13.63
2022-10-19T02:15:43.474Z,14.52
2022-10-19T02:20:46.765Z,13.05
2022-10-19T02:25:49.276Z,12.43
2022-10-19T02:30:51.821Z,12.65
2022-10-19T02:35:54.227Z,13.20
2022-10-19T02:41:12.033Z,12.30
2022-10-19T02:46:44.377Z,12.02
2022-10-19T02:52:01.675Z,11.05
2022-10-19T02:57:27.619Z,11.57
2022-10-19T03:02:29.977Z,10.95
2022-10-19T03:07:32.539Z,9.60
2022-10-19T03:12:35.202Z,9.63
2022-10-19T03:17:37.441Z,8.80
2022-10-19T03:22:39.884Z,9.10
2022-10-19T03:27:42.142Z,8.48
2022-10-19T03:32:44.538Z,7.55
2022-10-19T03:37:46.734Z,7.03
2022-10-19T03:42:49.172Z,8.90
2022-10-19T03:47:52.314Z,8.18
2022-10-19T03:52:55.891Z,8.18
2022-10-19T03:57:58.685Z,8.18
2022-10-19T04:03:01.013Z,8.30
2022-10-19T04:08:03.164Z,8.68
2022-10-19T04:13:05.453Z,7.80
2022-10-19T04:18:07.666Z,9.02
2022-10-19T04:23:10.035Z,8.90
2022-10-19T04:28:12.363Z,9.95
2022-10-19T04:33:14.618Z,9.40
2022-10-19T04:38:17.001Z,8.85
2022-10-19T04:43:19.364Z,9.02
2022-10-19T04:48:21.731Z,12.48
2022-10-19T04:58:32.232Z,10.55
2022-10-19T05:03:34.585Z,9.82
2022-10-19T05:08:37.979Z,12.90
2022-10-19T05:13:41.243Z,10.88
2022-10-19T05:18:43.434Z,11.52
2022-10-19T05:23:46.231Z,13.10
2022-10-19T05:28:57.145Z,10.65
2022-10-19T05:33:59.941Z,10.45
2022-10-19T05:39:14.860Z,10.55
2022-10-19T05:44:22.798Z,10.15
2022-10-19T05:49:25.040Z,11.18
2022-10-19T05:54:28.597Z,11.00
2022-10-19T05:59:31.557Z,10.10
2022-10-19T06:04:34.301Z,11.02
2022-10-19T06:09:37.690Z,13.45
2022-10-19T06:14:39.927Z,13.27
2022-10-19T06:19:42.307Z,13.65
2022-10-19T06:24:44.616Z,15.55
2022-10-19T06:29:46.934Z,16.13
2022-10-19T06:34:50.839Z,15.05
2022-10-19T06:39:55.424Z,14.40
2022-10-19T06:44:57.631Z,16.02
2022-10-19T06:49:59.811Z,15.38
2022-10-19T06:55:02.957Z,15.00
2022-10-19T07:00:09.340Z,15.45
2022-10-19T07:05:11.941Z,15.30
2022-10-19T07:10:14.363Z,15.52
2022-10-19T07:15:16.814Z,14.15
2022-10-19T07:20:19.410Z,13.68
2022-10-19T07:25:21.872Z,12.60
2022-10-19T07:30:24.412Z,13.35
2022-10-19T07:40:52.608Z,12.05
2022-10-19T07:46:03.041Z,12.07
2022-10-19T07:51:07.403Z,11.00
2022-10-19T07:56:12.430Z,9.90
2022-10-19T08:01:16.452Z,9.35
2022-10-19T08:06:22.050Z,10.10
2022-10-19T08:11:33.479Z,8.88
2022-10-19T08:16:40.949Z,5.80
2022-10-19T08:21:47.703Z,6.00
2022-10-19T08:26:51.807Z,6.53
2022-10-19T08:31:54.273Z,6.25
2022-10-19T08:36:56.619Z,5.97
2022-10-19T08:42:14.969Z,5.15
2022-10-19T08:47:54.585Z,5.20
2022-10-19T08:53:03.005Z,5.55
2022-10-19T08:58:21.171Z,5.20
2022-10-19T09:03:54.313Z,5.30
2022-10-19T09:08:58.459Z,4.55
2022-10-19T09:14:30.887Z,5.32
2022-10-19T09:19:33.263Z,4.82
2022-10-19T09:25:18.493Z,4.57
2022-10-19T09:30:23.818Z,4.30
2022-10-19T09:35:31.095Z,4.78
2022-10-19T09:40:35.350Z,4.53
2022-10-19T09:45:43.478Z,4.18
2022-10-19T09:50:46.670Z,4.30
2022-10-19T09:55:57.889Z,4.90
2022-10-19T10:01:01.916Z,4.50
2022-10-19T10:06:07.938Z,4.28
2022-10-19T10:11:15.833Z,3.95
2022-10-19T10:16:21.854Z,4.15
2022-10-19T10:21:35.097Z,3.90
2022-10-19T10:26:43.174Z,4.22
2022-10-19T10:31:46.938Z,3.97
2022-10-19T10:36:52.348Z,3.63
2022-10-19T10:41:56.242Z,3.92
2022-10-19T10:47:01.065Z,4.78
2022-10-19T10:52:18.624Z,3.58
2022-10-19T11:02:58.845Z,3.70
2022-10-19T11:08:31.224Z,3.03
2022-10-19T11:13:42.069Z,2.78
2022-10-19T11:18:49.351Z,3.20
2022-10-19T11:24:12.315Z,3.85
2022-10-19T11:29:51.496Z,4.60
2022-10-19T11:34:59.618Z,5.35
2022-10-19T11:40:29.718Z,4.45
2022-10-19T11:45:31.891Z,4.05
2022-10-19T11:50:58.857Z,3.75
2022-10-19T11:57:01.625Z,3.80
2022-10-19T12:02:41.944Z,4.63
2022-10-19T12:08:08.194Z,3.67
2022-10-19T12:13:15.349Z,6.22
2022-10-19T12:18:41.687Z,4.05
2022-10-19T12:23:47.318Z,6.20
2022-10-19T12:28:53.061Z,4.43
2022-10-19T12:34:19.688Z,3.83
2022-10-19T12:39:39.712Z,3.70
2022-10-19T12:45:10.706Z,3.38
2022-10-19T12:50:12.962Z,3.00
2022-10-19T12:55:26.583Z,2.90
2022-10-19T13:00:35.439Z,2.92
2022-10-19T13:10:39.969Z,2.88
2022-10-19T13:15:42.127Z,3.25
2022-10-19T13:20:54.226Z,3.53
2022-10-19T13:26:30.403Z,3.72
2022-10-19T13:31:33.531Z,3.53
2022-10-19T13:36:39.670Z,3.85
2022-10-19T13:41:47.727Z,3.38
2022-10-19T13:47:06.728Z,3.03
2022-10-19T13:52:27.457Z,3.47
2022-10-19T13:57:56.103Z,3.15
2022-10-19T14:03:22.949Z,3.78
2022-10-19T14:08:46.436Z,3.92
2022-10-19T14:14:15.736Z,3.40
2022-10-19T14:19:32.807Z,3.45
2022-10-19T14:24:36.845Z,3.75
2022-10-19T14:29:50.617Z,3.47
2022-10-19T14:34:53.555Z,3.78
2022-10-19T14:40:01.751Z,3.58
2022-10-19T14:45:05.580Z,3.75
2022-10-19T14:50:12.191Z,4.53
2022-10-19T14:55:18.507Z,4.15
2022-10-19T15:00:23.531Z,4.28
2022-10-19T15:05:31.112Z,4.15
2022-10-19T15:10:46.102Z,3.97
2022-10-19T15:15:52.487Z,3.58
2022-10-19T15:21:13.034Z,3.53
2022-10-19T15:26:27.138Z,4.20
2022-10-19T15:31:30.279Z,4.80
2022-10-19T15:36:33.573Z,4.90
2022-10-19T15:41:38.635Z,5.38
2022-10-19T15:46:49.917Z,5.45
2022-10-19T15:51:52.373Z,6.20
2022-10-19T15:56:56.774Z,6.78
2022-10-19T16:01:59.049Z,6.30
2022-10-19T16:07:02.343Z,6.22
2022-10-19T16:12:04.623Z,6.50
2022-10-19T16:17:06.979Z,6.88
2022-10-19T16:22:09.329Z,4.95
2022-10-19T16:27:15.426Z,4.43
2022-10-19T16:32:17.609Z,4.43
2022-10-19T16:37:19.791Z,4.00
2022-10-19T16:42:23.751Z,3.50
2022-10-19T16:47:27.922Z,3.30
2022-10-19T16:52:32.321Z,3.90
2022-10-19T16:57:34.842Z,3.40
2022-10-19T17:02:39.881Z,5.07
2022-10-19T17:07:45.415Z,4.25
2022-10-19T17:12:47.992Z,4.70
2022-10-19T17:17:50.219Z,4.85
2022-10-19T17:22:52.685Z,5.10
2022-10-19T17:27:55.012Z,8.23
2022-10-19T17:32:57.364Z,20.92
2022-10-19T17:38:00.097Z,14.02
2022-10-19T17:43:02.286Z,9.25
2022-10-19T17:48:05.487Z,8.55
2022-10-19T17:53:07.816Z,6.20
2022-10-19T17:58:09.997Z,5.80
2022-10-19T18:03:12.315Z,8.68
2022-10-19T18:08:14.687Z,5.93
2022-10-19T18:13:16.863Z,8.45
2022-10-19T18:18:19.956Z,8.00
2022-10-19T18:23:22.210Z,7.43
2022-10-19T18:28:24.362Z,11.40
2022-10-19T18:33:30.220Z,8.63
2022-10-19T18:38:35.297Z,9.45
2022-10-19T18:43:37.928Z,9.80
2022-10-19T18:48:40.162Z,11.70
2022-10-19T18:53:44.000Z,8.82
2022-10-19T18:58:47.467Z,9.73
2022-10-19T19:03:50.830Z,10.07
2022-10-19T19:08:57.469Z,8.80
2022-10-19T19:14:02.209Z,9.95
2022-10-19T19:19:06.092Z,10.65
2022-10-19T19:24:08.979Z,11.43
2022-10-19T19:29:11.508Z,11.65
2022-10-19T19:34:14.199Z,12.35
2022-10-19T19:39:19.893Z,17.90
2022-10-19T19:44:22.187Z,14.57
2022-10-19T19:49:25.373Z,15.40
2022-10-19T19:54:27.736Z,16.45
2022-10-19T19:59:30.750Z,16.77
2022-10-19T20:04:33.165Z,15.27
2022-10-19T20:09:35.588Z,14.35
2022-10-19T20:14:37.990Z,13.68
2022-10-19T20:19:40.546Z,14.32
2022-10-19T20:24:42.920Z,12.82
2022-10-19T20:29:45.265Z,13.75
2022-10-19T20:34:47.840Z,13.55
2022-10-19T20:39:50.740Z,14.15
2022-10-19T20:44:55.198Z,13.30
2022-10-19T20:49:57.609Z,12.82
2022-10-19T20:55:00.021Z,11.63
2022-10-19T21:00:02.411Z,10.90
2022-10-19T21:05:04.948Z,10.63
2022-10-19T21:10:07.496Z,8.73
2022-10-19T21:15:10.314Z,9.63
2022-10-19T21:20:12.519Z,9.80
2022-10-19T21:25:14.962Z,10.48
2022-10-19T21:30:17.219Z,12.13
2022-10-19T21:35:19.552Z,11.95
2022-10-19T21:40:21.722Z,11.70
2022-10-19T21:45:30.490Z,12.90
2022-10-19T21:50:33.395Z,11.57
2022-10-19T21:55:36.644Z,11.30
2022-10-19T22:00:39.249Z,11.43
2022-10-19T22:05:50.655Z,11.05
2022-10-19T22:10:53.604Z,11.75
2022-10-19T22:15:55.981Z,12.00
2022-10-19T22:20:58.318Z,14.70
2022-10-19T22:26:00.927Z,13.02
2022-10-19T22:31:03.105Z,12.20
2022-10-19T22:36:07.990Z,13.35
2022-10-19T22:42:06.605Z,14.05
2022-10-19T22:48:05.050Z,13.27
2022-10-19T22:53:07.210Z,13.20
2022-10-19T22:58:12.881Z,14.13
2022-10-19T23:03:15.232Z,13.43
2022-10-19T23:08:17.371Z,14.68
2022-10-19T23:13:19.602Z,14.15
2022-10-19T23:18:22.012Z,14.27
2022-10-19T23:23:24.561Z,13.80
2022-10-19T23:28:27.152Z,14.85
2022-10-19T23:33:29.302Z,13.88
2022-10-19T23:38:31.494Z,13.48
2022-10-19T23:43:33.926Z,14.00
2022-10-19T23:48:36.773Z,13.77
2022-10-19T23:53:41.669Z,12.98
2022-10-19T23:58:44.390Z,12.98
